sensor_id;sensor_type;location;lat;lon;timestamp;temperature;humidity
40023;DHT22;25713;-35.352;149.036;2023-03-14T00:01:38;20.50;80.00
40023;DHT22;25713;-35.352;149.036;2023-03-14T00:04:08;20.50;80.20
40023;DHT22;25713;-35.352;149.036;2023-03-14T00:06:39;20.50;79.00
40023;DHT22;25713;-35.352;149.036;2023-03-14T00:09:09;20.50;78.00
40023;DHT22;25713;-35.352;149.036;2023-03-14T00:11:42;20.50;77.60
40023;DHT22;25713;-35.352;149.036;2023-03-14T00:14:11;20.50;78.00
40023;DHT22;25713;-35.352;149.036;2023-03-14T00:16:41;20.40;78.40
40023;DHT22;25713;-35.352;149.036;2023-03-14T00:19:10;20.50;79.20
40023;DHT22;25713;-35.352;149.036;2023-03-14T00:21:40;20.50;79.40
40023;DHT22;25713;-35.352;149.036;2023-03-14T00:24:10;20.40;79.40
40023;DHT22;25713;-35.352;149.036;2023-03-14T00:26:41;20.40;78.80
40023;DHT22;25713;-35.352;149.036;2023-03-14T00:29:10;20.40;80.20
40023;DHT22;25713;-35.352;149.036;2023-03-14T00:31:40;20.50;80.50
40023;DHT22;25713;-35.352;149.036;2023-03-14T00:34:11;20.50;78.80
40023;DHT22;25713;-35.352;149.036;2023-03-14T00:36:41;20.60;80.30
40023;DHT22;25713;-35.352;149.036;2023-03-14T00:39:10;20.60;79.10
40023;DHT22;25713;-35.352;149.036;2023-03-14T00:41:42;20.70;78.30
40023;DHT22;25713;-35.352;149.036;2023-03-14T00:44:12;20.70;77.90
40023;DHT22;25713;-35.352;149.036;2023-03-14T00:46:42;20.80;77.90
40023;DHT22;25713;-35.352;149.036;2023-03-14T00:49:12;20.80;77.30
40023;DHT22;25713;-35.352;149.036;2023-03-14T00:51:41;20.80;77.50
40023;DHT22;25713;-35.352;149.036;2023-03-14T00:54:11;20.80;77.20
40023;DHT22;25713;-35.352;149.036;2023-03-14T00:56:44;20.70;77.20
40023;DHT22;25713;-35.352;149.036;2023-03-14T00:59:15;20.70;77.60
40023;DHT22;25713;-35.352;149.036;2023-03-14T01:01:46;20.70;77.30
40023;DHT22;25713;-35.352;149.036;2023-03-14T01:04:16;20.70;77.10
40023;DHT22;25713;-35.352;149.036;2023-03-14T01:06:46;20.70;79.30
40023;DHT22;25713;-35.352;149.036;2023-03-14T01:09:15;20.70;78.60
40023;DHT22;25713;-35.352;149.036;2023-03-14T01:11:48;20.70;78.10
40023;DHT22;25713;-35.352;149.036;2023-03-14T01:14:20;20.80;77.80
40023;DHT22;25713;-35.352;149.036;2023-03-14T01:16:50;20.90;76.90
40023;DHT22;25713;-35.352;149.036;2023-03-14T01:19:20;20.90;77.60
40023;DHT22;25713;-35.352;149.036;2023-03-14T01:21:50;21.00;77.50
40023;DHT22;25713;-35.352;149.036;2023-03-14T01:24:21;21.10;76.90
40023;DHT22;25713;-35.352;149.036;2023-03-14T01:26:53;21.10;76.60
40023;DHT22;25713;-35.352;149.036;2023-03-14T01:29:26;21.10;77.10
40023;DHT22;25713;-35.352;149.036;2023-03-14T01:31:56;21.00;76.80
40023;DHT22;25713;-35.352;149.036;2023-03-14T01:34:26;21.00;77.00
40023;DHT22;25713;-35.352;149.036;2023-03-14T01:36:56;20.90;77.20
40023;DHT22;25713;-35.352;149.036;2023-03-14T01:39:26;20.90;77.70
40023;DHT22;25713;-35.352;149.036;2023-03-14T01:41:59;20.90;77.90
40023;DHT22;25713;-35.352;149.036;2023-03-14T01:47:13;20.90;78.20
40023;DHT22;25713;-35.352;149.036;2023-03-14T01:49:43;20.80;78.00
40023;DHT22;25713;-35.352;149.036;2023-03-14T01:52:18;20.80;77.80
40023;DHT22;25713;-35.352;149.036;2023-03-14T01:54:51;20.80;78.80
40023;DHT22;25713;-35.352;149.036;2023-03-14T01:57:27;20.90;78.60
40023;DHT22;25713;-35.352;149.036;2023-03-14T02:00:03;20.90;77.60
40023;DHT22;25713;-35.352;149.036;2023-03-14T02:02:43;21.00;77.20
40023;DHT22;25713;-35.352;149.036;2023-03-14T02:05:18;21.00;77.70
40023;DHT22;25713;-35.352;149.036;2023-03-14T02:07:54;21.00;78.20
40023;DHT22;25713;-35.352;149.036;2023-03-14T02:10:31;21.00;78.10
40023;DHT22;25713;-35.352;149.036;2023-03-14T02:13:05;21.00;78.20
40023;DHT22;25713;-35.352;149.036;2023-03-14T02:15:50;21.00;78.30
40023;DHT22;25713;-35.352;149.036;2023-03-14T02:18:36;21.00;78.70
40023;DHT22;25713;-35.352;149.036;2023-03-14T02:21:26;20.90;79.00
40023;DHT22;25713;-35.352;149.036;2023-03-14T02:24:06;21.00;79.40
40023;DHT22;25713;-35.352;149.036;2023-03-14T02:29:37;21.00;79.10
40023;DHT22;25713;-35.352;149.036;2023-03-14T02:32:09;21.00;79.40
40023;DHT22;25713;-35.352;149.036;2023-03-14T02:34:41;21.00;79.30
40023;DHT22;25713;-35.352;149.036;2023-03-14T02:37:12;21.00;79.20
40023;DHT22;25713;-35.352;149.036;2023-03-14T02:39:44;21.00;79.60
40023;DHT22;25713;-35.352;149.036;2023-03-14T02:42:15;21.00;79.60
40023;DHT22;25713;-35.352;149.036;2023-03-14T02:48:01;21.10;79.70
40023;DHT22;25713;-35.352;149.036;2023-03-14T02:50:35;21.10;79.50
40023;DHT22;25713;-35.352;149.036;2023-03-14T02:53:06;21.10;79.70
40023;DHT22;25713;-35.352;149.036;2023-03-14T02:55:37;21.10;79.30
40023;DHT22;25713;-35.352;149.036;2023-03-14T02:58:13;21.10;79.80
40023;DHT22;25713;-35.352;149.036;2023-03-14T03:00:45;21.10;79.50
40023;DHT22;25713;-35.352;149.036;2023-03-14T03:03:18;21.20;79.60
40023;DHT22;25713;-35.352;149.036;2023-03-14T03:05:51;21.20;80.40
40023;DHT22;25713;-35.352;149.036;2023-03-14T03:08:22;21.20;80.50
40023;DHT22;25713;-35.352;149.036;2023-03-14T03:10:53;21.20;79.50
40023;DHT22;25713;-35.352;149.036;2023-03-14T03:13:23;21.30;79.10
40023;DHT22;25713;-35.352;149.036;2023-03-14T03:15:56;21.30;79.10
40023;DHT22;25713;-35.352;149.036;2023-03-14T03:18:28;21.40;79.30
40023;DHT22;25713;-35.352;149.036;2023-03-14T03:20:59;21.40;79.80
40023;DHT22;25713;-35.352;149.036;2023-03-14T03:23:30;21.40;79.60
40023;DHT22;25713;-35.352;149.036;2023-03-14T03:26:00;21.50;78.80
40023;DHT22;25713;-35.352;149.036;2023-03-14T03:28:30;21.50;78.80
40023;DHT22;25713;-35.352;149.036;2023-03-14T03:31:07;21.50;78.80
40023;DHT22;25713;-35.352;149.036;2023-03-14T03:33:41;21.50;78.90
40023;DHT22;25713;-35.352;149.036;2023-03-14T03:36:11;21.60;78.10
40023;DHT22;25713;-35.352;149.036;2023-03-14T03:38:42;21.70;78.10
40023;DHT22;25713;-35.352;149.036;2023-03-14T03:41:12;21.70;78.20
40023;DHT22;25713;-35.352;149.036;2023-03-14T03:43:41;21.70;77.90
40023;DHT22;25713;-35.352;149.036;2023-03-14T03:46:13;21.70;78.10
40023;DHT22;25713;-35.352;149.036;2023-03-14T03:48:44;21.70;78.30
40023;DHT22;25713;-35.352;149.036;2023-03-14T03:51:14;21.70;78.10
40023;DHT22;25713;-35.352;149.036;2023-03-14T03:53:45;21.70;78.60
40023;DHT22;25713;-35.352;149.036;2023-03-14T03:56:18;21.80;78.00
40023;DHT22;25713;-35.352;149.036;2023-03-14T03:58:48;21.90;78.50
40023;DHT22;25713;-35.352;149.036;2023-03-14T04:01:17;21.80;77.80
40023;DHT22;25713;-35.352;149.036;2023-03-14T04:03:54;21.90;77.80
40023;DHT22;25713;-35.352;149.036;2023-03-14T04:06:24;22.00;77.60
40023;DHT22;25713;-35.352;149.036;2023-03-14T04:08:57;22.00;77.50
40023;DHT22;25713;-35.352;149.036;2023-03-14T04:11:43;22.00;77.70
40023;DHT22;25713;-35.352;149.036;2023-03-14T04:14:22;22.00;77.40
40023;DHT22;25713;-35.352;149.036;2023-03-14T04:17:03;22.00;77.70
40023;DHT22;25713;-35.352;149.036;2023-03-14T04:19:35;22.00;78.40
40023;DHT22;25713;-35.352;149.036;2023-03-14T04:22:06;22.00;79.00
40023;DHT22;25713;-35.352;149.036;2023-03-14T04:24:44;22.00;78.30
40023;DHT22;25713;-35.352;149.036;2023-03-14T04:27:15;22.00;78.30
40023;DHT22;25713;-35.352;149.036;2023-03-14T04:29:47;22.00;78.00
40023;DHT22;25713;-35.352;149.036;2023-03-14T04:32:21;22.10;77.90
40023;DHT22;25713;-35.352;149.036;2023-03-14T04:34:53;22.00;78.00
40023;DHT22;25713;-35.352;149.036;2023-03-14T04:37:23;22.00;78.50
40023;DHT22;25713;-35.352;149.036;2023-03-14T04:39:54;22.00;78.40
40023;DHT22;25713;-35.352;149.036;2023-03-14T04:42:29;21.90;79.70
40023;DHT22;25713;-35.352;149.036;2023-03-14T04:45:00;21.80;80.10
40023;DHT22;25713;-35.352;149.036;2023-03-14T04:47:32;21.80;81.50
40023;DHT22;25713;-35.352;149.036;2023-03-14T04:50:06;21.70;81.50
40023;DHT22;25713;-35.352;149.036;2023-03-14T04:52:36;21.70;81.60
40023;DHT22;25713;-35.352;149.036;2023-03-14T04:55:07;21.70;81.30
40023;DHT22;25713;-35.352;149.036;2023-03-14T04:57:38;21.60;81.10
40023;DHT22;25713;-35.352;149.036;2023-03-14T05:00:13;21.60;80.80
40023;DHT22;25713;-35.352;149.036;2023-03-14T05:02:52;21.60;80.50
40023;DHT22;25713;-35.352;149.036;2023-03-14T05:05:42;21.70;80.80
40023;DHT22;25713;-35.352;149.036;2023-03-14T05:08:47;21.70;81.00
40023;DHT22;25713;-35.352;149.036;2023-03-14T05:11:49;21.70;80.60
40023;DHT22;25713;-35.352;149.036;2023-03-14T05:14:37;21.70;80.10
40023;DHT22;25713;-35.352;149.036;2023-03-14T05:17:34;21.70;80.00
40023;DHT22;25713;-35.352;149.036;2023-03-14T05:20:17;21.80;79.40
40023;DHT22;25713;-35.352;149.036;2023-03-14T05:23:14;21.90;79.60
40023;DHT22;25713;-35.352;149.036;2023-03-14T05:26:22;21.90;78.20
40023;DHT22;25713;-35.352;149.036;2023-03-14T05:29:02;21.90;78.60
40023;DHT22;25713;-35.352;149.036;2023-03-14T05:31:43;21.90;79.00
40023;DHT22;25713;-35.352;149.036;2023-03-14T05:34:33;21.90;78.00
40023;DHT22;25713;-35.352;149.036;2023-03-14T05:37:35;21.80;78.10
40023;DHT22;25713;-35.352;149.036;2023-03-14T05:40:27;21.80;78.20
40023;DHT22;25713;-35.352;149.036;2023-03-14T05:43:20;21.80;78.00
40023;DHT22;25713;-35.352;149.036;2023-03-14T05:46:00;21.80;78.10
40023;DHT22;25713;-35.352;149.036;2023-03-14T05:48:41;21.80;78.20
40023;DHT22;25713;-35.352;149.036;2023-03-14T05:51:29;21.80;78.20
40023;DHT22;25713;-35.352;149.036;2023-03-14T05:54:08;21.80;78.70
40023;DHT22;25713;-35.352;149.036;2023-03-14T05:56:58;21.80;78.60
40023;DHT22;25713;-35.352;149.036;2023-03-14T05:59:46;21.80;78.40
40023;DHT22;25713;-35.352;149.036;2023-03-14T06:02:33;21.80;78.00
40023;DHT22;25713;-35.352;149.036;2023-03-14T06:05:11;21.80;78.70
40023;DHT22;25713;-35.352;149.036;2023-03-14T06:07:42;21.80;78.90
40023;DHT22;25713;-35.352;149.036;2023-03-14T06:10:13;21.80;78.90
40023;DHT22;25713;-35.352;149.036;2023-03-14T06:12:45;21.80;78.90
40023;DHT22;25713;-35.352;149.036;2023-03-14T06:15:15;21.80;79.30
40023;DHT22;25713;-35.352;149.036;2023-03-14T06:17:46;21.80;79.00
40023;DHT22;25713;-35.352;149.036;2023-03-14T06:20:16;21.80;79.10
40023;DHT22;25713;-35.352;149.036;2023-03-14T06:22:46;21.80;79.10
40023;DHT22;25713;-35.352;149.036;2023-03-14T06:25:17;21.80;78.90
40023;DHT22;25713;-35.352;149.036;2023-03-14T06:27:51;21.80;78.90
40023;DHT22;25713;-35.352;149.036;2023-03-14T06:30:25;21.80;78.60
40023;DHT22;25713;-35.352;149.036;2023-03-14T06:32:55;21.80;78.70
40023;DHT22;25713;-35.352;149.036;2023-03-14T06:35:25;21.80;78.10
40023;DHT22;25713;-35.352;149.036;2023-03-14T06:37:56;21.80;78.00
40023;DHT22;25713;-35.352;149.036;2023-03-14T06:40:26;21.80;78.50
40023;DHT22;25713;-35.352;149.036;2023-03-14T06:43:02;21.80;78.40
40023;DHT22;25713;-35.352;149.036;2023-03-14T06:45:34;21.80;79.10
40023;DHT22;25713;-35.352;149.036;2023-03-14T06:48:06;21.80;79.30
40023;DHT22;25713;-35.352;149.036;2023-03-14T06:50:43;21.80;79.20
40023;DHT22;25713;-35.352;149.036;2023-03-14T06:53:13;21.70;79.40
40023;DHT22;25713;-35.352;149.036;2023-03-14T06:55:46;21.70;79.50
40023;DHT22;25713;-35.352;149.036;2023-03-14T06:58:20;21.70;79.70
40023;DHT22;25713;-35.352;149.036;2023-03-14T07:00:50;21.70;80.00
40023;DHT22;25713;-35.352;149.036;2023-03-14T07:03:25;21.70;80.40
40023;DHT22;25713;-35.352;149.036;2023-03-14T07:05:57;21.70;80.20
40023;DHT22;25713;-35.352;149.036;2023-03-14T07:08:27;21.60;80.20
40023;DHT22;25713;-35.352;149.036;2023-03-14T07:10:58;21.60;80.30
40023;DHT22;25713;-35.352;149.036;2023-03-14T07:13:30;21.60;80.30
40023;DHT22;25713;-35.352;149.036;2023-03-14T07:16:08;21.60;80.90
40023;DHT22;25713;-35.352;149.036;2023-03-14T07:18:39;21.60;81.10
40023;DHT22;25713;-35.352;149.036;2023-03-14T07:21:09;21.60;81.10
40023;DHT22;25713;-35.352;149.036;2023-03-14T07:23:40;21.60;81.30
40023;DHT22;25713;-35.352;149.036;2023-03-14T07:26:11;21.60;81.20
40023;DHT22;25713;-35.352;149.036;2023-03-14T07:28:48;21.60;81.70
40023;DHT22;25713;-35.352;149.036;2023-03-14T07:31:21;21.50;81.90
40023;DHT22;25713;-35.352;149.036;2023-03-14T07:33:51;21.50;82.00
40023;DHT22;25713;-35.352;149.036;2023-03-14T07:36:22;21.50;82.20
40023;DHT22;25713;-35.352;149.036;2023-03-14T07:38:52;21.40;82.30
40023;DHT22;25713;-35.352;149.036;2023-03-14T07:41:45;21.50;82.70
40023;DHT22;25713;-35.352;149.036;2023-03-14T07:44:47;21.40;82.40
40023;DHT22;25713;-35.352;149.036;2023-03-14T07:47:16;21.40;82.70
40023;DHT22;25713;-35.352;149.036;2023-03-14T07:49:46;21.40;82.70
40023;DHT22;25713;-35.352;149.036;2023-03-14T07:52:16;21.40;82.70
40023;DHT22;25713;-35.352;149.036;2023-03-14T07:54:46;21.40;82.50
40023;DHT22;25713;-35.352;149.036;2023-03-14T07:57:17;21.40;82.70
40023;DHT22;25713;-35.352;149.036;2023-03-14T07:59:49;21.40;82.50
40023;DHT22;25713;-35.352;149.036;2023-03-14T08:02:19;21.30;82.30
40023;DHT22;25713;-35.352;149.036;2023-03-14T08:04:49;21.30;82.50
40023;DHT22;25713;-35.352;149.036;2023-03-14T08:07:20;21.30;83.20
40023;DHT22;25713;-35.352;149.036;2023-03-14T08:09:50;21.30;83.10
40023;DHT22;25713;-35.352;149.036;2023-03-14T08:12:20;21.30;83.10
40023;DHT22;25713;-35.352;149.036;2023-03-14T08:14:52;21.30;83.30
40023;DHT22;25713;-35.352;149.036;2023-03-14T08:17:21;21.30;83.40
40023;DHT22;25713;-35.352;149.036;2023-03-14T08:19:52;21.30;83.60
40023;DHT22;25713;-35.352;149.036;2023-03-14T08:22:22;21.30;83.30
40023;DHT22;25713;-35.352;149.036;2023-03-14T08:24:53;21.30;83.30
40023;DHT22;25713;-35.352;149.036;2023-03-14T08:27:23;21.30;82.70
40023;DHT22;25713;-35.352;149.036;2023-03-14T08:29:55;21.30;83.20
40023;DHT22;25713;-35.352;149.036;2023-03-14T08:32:25;21.30;84.00
40023;DHT22;25713;-35.352;149.036;2023-03-14T08:34:55;21.20;83.90
40023;DHT22;25713;-35.352;149.036;2023-03-14T08:37:25;21.20;83.70
40023;DHT22;25713;-35.352;149.036;2023-03-14T08:39:55;21.20;83.40
40023;DHT22;25713;-35.352;149.036;2023-03-14T08:42:25;21.20;83.60
40023;DHT22;25713;-35.352;149.036;2023-03-14T08:44:57;21.20;83.50
40023;DHT22;25713;-35.352;149.036;2023-03-14T08:47:25;21.20;83.70
40023;DHT22;25713;-35.352;149.036;2023-03-14T08:49:56;21.20;83.60
40023;DHT22;25713;-35.352;149.036;2023-03-14T08:52:26;21.20;83.30
40023;DHT22;25713;-35.352;149.036;2023-03-14T08:54:56;21.20;83.70
40023;DHT22;25713;-35.352;149.036;2023-03-14T08:57:27;21.20;83.50
40023;DHT22;25713;-35.352;149.036;2023-03-14T08:59:59;21.20;83.50
40023;DHT22;25713;-35.352;149.036;2023-03-14T09:02:28;21.20;84.00
40023;DHT22;25713;-35.352;149.036;2023-03-14T09:05:01;21.20;83.90
40023;DHT22;25713;-35.352;149.036;2023-03-14T09:07:31;21.20;84.00
40023;DHT22;25713;-35.352;149.036;2023-03-14T09:10:02;21.20;83.90
40023;DHT22;25713;-35.352;149.036;2023-03-14T09:12:32;21.20;84.00
40023;DHT22;25713;-35.352;149.036;2023-03-14T09:15:05;21.20;83.90
40023;DHT22;25713;-35.352;149.036;2023-03-14T09:17:35;21.20;84.00
40023;DHT22;25713;-35.352;149.036;2023-03-14T09:20:07;21.20;84.20
40023;DHT22;25713;-35.352;149.036;2023-03-14T09:22:37;21.20;84.20
40023;DHT22;25713;-35.352;149.036;2023-03-14T09:25:08;21.10;84.40
40023;DHT22;25713;-35.352;149.036;2023-03-14T09:27:38;21.10;84.50
40023;DHT22;25713;-35.352;149.036;2023-03-14T09:30:12;21.10;84.70
40023;DHT22;25713;-35.352;149.036;2023-03-14T09:32:42;21.10;84.80
40023;DHT22;25713;-35.352;149.036;2023-03-14T09:35:11;21.20;85.00
40023;DHT22;25713;-35.352;149.036;2023-03-14T09:37:41;21.20;85.10
40023;DHT22;25713;-35.352;149.036;2023-03-14T09:40:14;21.20;85.10
40023;DHT22;25713;-35.352;149.036;2023-03-14T09:42:45;21.20;85.20
40023;DHT22;25713;-35.352;149.036;2023-03-14T09:45:23;21.20;85.10
40023;DHT22;25713;-35.352;149.036;2023-03-14T09:47:55;21.20;85.30
40023;DHT22;25713;-35.352;149.036;2023-03-14T09:50:24;21.20;85.30
40023;DHT22;25713;-35.352;149.036;2023-03-14T09:52:59;21.20;85.30
40023;DHT22;25713;-35.352;149.036;2023-03-14T09:55:33;21.20;85.40
40023;DHT22;25713;-35.352;149.036;2023-03-14T09:58:08;21.20;85.50
40023;DHT22;25713;-35.352;149.036;2023-03-14T10:00:43;21.20;85.60
40023;DHT22;25713;-35.352;149.036;2023-03-14T10:03:25;21.10;85.70
40023;DHT22;25713;-35.352;149.036;2023-03-14T10:05:56;21.10;85.80
40023;DHT22;25713;-35.352;149.036;2023-03-14T10:08:27;21.10;85.70
40023;DHT22;25713;-35.352;149.036;2023-03-14T10:10:57;21.10;85.90
40023;DHT22;25713;-35.352;149.036;2023-03-14T10:13:28;21.10;86.00
40023;DHT22;25713;-35.352;149.036;2023-03-14T10:16:03;21.10;86.10
40023;DHT22;25713;-35.352;149.036;2023-03-14T10:18:34;21.10;86.20
40023;DHT22;25713;-35.352;149.036;2023-03-14T10:21:09;21.10;86.20
40023;DHT22;25713;-35.352;149.036;2023-03-14T10:24:07;21.00;86.00
40023;DHT22;25713;-35.352;149.036;2023-03-14T10:26:38;21.00;86.50
40023;DHT22;25713;-35.352;149.036;2023-03-14T10:29:12;21.10;86.70
40023;DHT22;25713;-35.352;149.036;2023-03-14T10:31:52;21.10;86.60
40023;DHT22;25713;-35.352;149.036;2023-03-14T10:34:26;21.00;86.50
40023;DHT22;25713;-35.352;149.036;2023-03-14T10:36:58;21.00;86.70
40023;DHT22;25713;-35.352;149.036;2023-03-14T10:39:45;21.00;86.60
40023;DHT22;25713;-35.352;149.036;2023-03-14T10:42:19;21.00;86.70
40023;DHT22;25713;-35.352;149.036;2023-03-14T10:44:55;21.10;86.80
40023;DHT22;25713;-35.352;149.036;2023-03-14T10:47:28;21.10;86.90
40023;DHT22;25713;-35.352;149.036;2023-03-14T10:49:58;21.00;86.80
40023;DHT22;25713;-35.352;149.036;2023-03-14T10:52:49;21.00;86.80
40023;DHT22;25713;-35.352;149.036;2023-03-14T10:55:19;21.00;87.00
40023;DHT22;25713;-35.352;149.036;2023-03-14T10:57:49;21.00;86.90
40023;DHT22;25713;-35.352;149.036;2023-03-14T11:00:21;21.00;86.90
40023;DHT22;25713;-35.352;149.036;2023-03-14T11:03:03;21.00;87.00
40023;DHT22;25713;-35.352;149.036;2023-03-14T11:05:38;21.00;87.10
40023;DHT22;25713;-35.352;149.036;2023-03-14T11:08:12;21.00;87.20
40023;DHT22;25713;-35.352;149.036;2023-03-14T11:10:47;21.00;87.20
40023;DHT22;25713;-35.352;149.036;2023-03-14T11:13:23;21.00;87.20
40023;DHT22;25713;-35.352;149.036;2023-03-14T11:16:05;20.90;87.00
40023;DHT22;25713;-35.352;149.036;2023-03-14T11:21:48;21.00;87.30
40023;DHT22;25713;-35.352;149.036;2023-03-14T11:24:33;20.90;87.40
40023;DHT22;25713;-35.352;149.036;2023-03-14T11:27:15;20.90;87.40
40023;DHT22;25713;-35.352;149.036;2023-03-14T11:29:55;20.90;87.50
40023;DHT22;25713;-35.352;149.036;2023-03-14T11:32:37;20.90;87.70
40023;DHT22;25713;-35.352;149.036;2023-03-14T11:35:19;20.90;87.70
40023;DHT22;25713;-35.352;149.036;2023-03-14T11:37:55;20.90;87.60
40023;DHT22;25713;-35.352;149.036;2023-03-14T11:40:28;20.90;87.80
40023;DHT22;25713;-35.352;149.036;2023-03-14T11:43:11;20.90;87.70
40023;DHT22;25713;-35.352;149.036;2023-03-14T11:45:43;20.90;87.70
40023;DHT22;25713;-35.352;149.036;2023-03-14T11:48:34;20.90;87.80
40023;DHT22;25713;-35.352;149.036;2023-03-14T11:51:12;20.90;87.60
40023;DHT22;25713;-35.352;149.036;2023-03-14T11:53:52;20.90;87.70
40023;DHT22;25713;-35.352;149.036;2023-03-14T11:56:29;20.80;87.90
40023;DHT22;25713;-35.352;149.036;2023-03-14T11:59:04;20.80;87.80
40023;DHT22;25713;-35.352;149.036;2023-03-14T12:01:45;20.80;88.10
40023;DHT22;25713;-35.352;149.036;2023-03-14T12:07:19;20.80;88.10
40023;DHT22;25713;-35.352;149.036;2023-03-14T12:09:50;20.80;88.10
40023;DHT22;25713;-35.352;149.036;2023-03-14T12:12:20;20.90;88.20
40023;DHT22;25713;-35.352;149.036;2023-03-14T12:14:55;20.90;88.10
40023;DHT22;25713;-35.352;149.036;2023-03-14T12:17:27;20.90;88.10
40023;DHT22;25713;-35.352;149.036;2023-03-14T12:20:05;20.80;88.10
40023;DHT22;25713;-35.352;149.036;2023-03-14T12:22:46;20.80;88.10
40023;DHT22;25713;-35.352;149.036;2023-03-14T12:25:19;20.80;88.20
40023;DHT22;25713;-35.352;149.036;2023-03-14T12:28:19;20.80;88.40
40023;DHT22;25713;-35.352;149.036;2023-03-14T12:30:49;20.80;88.50
40023;DHT22;25713;-35.352;149.036;2023-03-14T12:33:29;20.80;88.40
40023;DHT22;25713;-35.352;149.036;2023-03-14T12:36:04;20.80;88.30
40023;DHT22;25713;-35.352;149.036;2023-03-14T12:38:56;20.80;88.30
40023;DHT22;25713;-35.352;149.036;2023-03-14T12:41:36;20.80;88.40
40023;DHT22;25713;-35.352;149.036;2023-03-14T12:44:41;20.80;88.40
40023;DHT22;25713;-35.352;149.036;2023-03-14T12:47:51;20.80;88.50
40023;DHT22;25713;-35.352;149.036;2023-03-14T12:50:26;20.80;88.30
40023;DHT22;25713;-35.352;149.036;2023-03-14T12:56:07;20.80;88.50
40023;DHT22;25713;-35.352;149.036;2023-03-14T12:58:43;20.80;88.50
40023;DHT22;25713;-35.352;149.036;2023-03-14T13:01:18;20.80;88.50
40023;DHT22;25713;-35.352;149.036;2023-03-14T13:03:50;20.80;88.50
40023;DHT22;25713;-35.352;149.036;2023-03-14T13:06:48;20.80;88.50
40023;DHT22;25713;-35.352;149.036;2023-03-14T13:09:45;20.80;88.60
40023;DHT22;25713;-35.352;149.036;2023-03-14T13:12:27;20.80;88.50
40023;DHT22;25713;-35.352;149.036;2023-03-14T13:14:59;20.80;88.50
40023;DHT22;25713;-35.352;149.036;2023-03-14T13:17:30;20.80;88.60
40023;DHT22;25713;-35.352;149.036;2023-03-14T13:20:05;20.80;88.60
40023;DHT22;25713;-35.352;149.036;2023-03-14T13:22:45;20.80;88.60
40023;DHT22;25713;-35.352;149.036;2023-03-14T13:25:15;20.80;88.60
40023;DHT22;25713;-35.352;149.036;2023-03-14T13:27:49;20.70;88.60
40023;DHT22;25713;-35.352;149.036;2023-03-14T13:30:24;20.80;88.60
40023;DHT22;25713;-35.352;149.036;2023-03-14T13:32:55;20.80;88.60
40023;DHT22;25713;-35.352;149.036;2023-03-14T13:35:27;20.80;88.80
40023;DHT22;25713;-35.352;149.036;2023-03-14T13:37:56;20.80;88.90
40023;DHT22;25713;-35.352;149.036;2023-03-14T13:40:29;20.70;88.80
40023;DHT22;25713;-35.352;149.036;2023-03-14T13:43:17;20.80;88.90
40023;DHT22;25713;-35.352;149.036;2023-03-14T13:45:50;20.70;88.80
40023;DHT22;25713;-35.352;149.036;2023-03-14T13:48:22;20.70;88.90
40023;DHT22;25713;-35.352;149.036;2023-03-14T13:50:56;20.70;88.90
40023;DHT22;25713;-35.352;149.036;2023-03-14T13:53:28;20.70;88.90
40023;DHT22;25713;-35.352;149.036;2023-03-14T13:56:03;20.70;88.90
40023;DHT22;25713;-35.352;149.036;2023-03-14T13:58:38;20.70;89.00
40023;DHT22;25713;-35.352;149.036;2023-03-14T14:01:15;20.70;89.00
40023;DHT22;25713;-35.352;149.036;2023-03-14T14:03:48;20.70;89.10
40023;DHT22;25713;-35.352;149.036;2023-03-14T14:06:38;20.70;89.10
40023;DHT22;25713;-35.352;149.036;2023-03-14T14:09:13;20.70;89.10
40023;DHT22;25713;-35.352;149.036;2023-03-14T14:11:45;20.70;89.10
40023;DHT22;25713;-35.352;149.036;2023-03-14T14:14:23;20.70;89.10
40023;DHT22;25713;-35.352;149.036;2023-03-14T14:16:55;20.70;89.00
40023;DHT22;25713;-35.352;149.036;2023-03-14T14:19:27;20.70;89.00
40023;DHT22;25713;-35.352;149.036;2023-03-14T14:21:59;20.70;89.00
40023;DHT22;25713;-35.352;149.036;2023-03-14T14:24:31;20.70;89.10
40023;DHT22;25713;-35.352;149.036;2023-03-14T14:27:08;20.70;89.10
40023;DHT22;25713;-35.352;149.036;2023-03-14T14:29:42;20.60;89.00
40023;DHT22;25713;-35.352;149.036;2023-03-14T14:32:14;20.60;89.20
40023;DHT22;25713;-35.352;149.036;2023-03-14T14:34:43;20.70;89.20
40023;DHT22;25713;-35.352;149.036;2023-03-14T14:37:21;20.70;89.30
40023;DHT22;25713;-35.352;149.036;2023-03-14T14:39:52;20.70;89.20
40023;DHT22;25713;-35.352;149.036;2023-03-14T14:42:24;20.70;89.80
40023;DHT22;25713;-35.352;149.036;2023-03-14T14:44:59;20.70;89.40
40023;DHT22;25713;-35.352;149.036;2023-03-14T14:47:31;20.70;89.40
40023;DHT22;25713;-35.352;149.036;2023-03-14T15:52:03;20.30;90.50
40023;DHT22;25713;-35.352;149.036;2023-03-14T15:54:33;20.20;90.80
40023;DHT22;25713;-35.352;149.036;2023-03-14T15:57:03;20.20;90.70
40023;DHT22;25713;-35.352;149.036;2023-03-14T15:59:33;20.30;90.70
40023;DHT22;25713;-35.352;149.036;2023-03-14T16:02:03;20.30;90.70
40023;DHT22;25713;-35.352;149.036;2023-03-14T16:04:33;20.30;90.70
40023;DHT22;25713;-35.352;149.036;2023-03-14T16:07:05;20.30;90.70
40023;DHT22;25713;-35.352;149.036;2023-03-14T16:09:36;20.30;90.60
40023;DHT22;25713;-35.352;149.036;2023-03-14T16:12:07;20.30;90.60
40023;DHT22;25713;-35.352;149.036;2023-03-14T16:14:37;20.30;90.50
40023;DHT22;25713;-35.352;149.036;2023-03-14T16:17:07;20.30;90.40
40023;DHT22;25713;-35.352;149.036;2023-03-14T16:19:37;20.30;90.40
40023;DHT22;25713;-35.352;149.036;2023-03-14T16:22:11;20.40;90.50
40023;DHT22;25713;-35.352;149.036;2023-03-14T16:24:41;20.40;90.50
40023;DHT22;25713;-35.352;149.036;2023-03-14T16:27:12;20.30;90.80
40023;DHT22;25713;-35.352;149.036;2023-03-14T16:29:42;20.40;90.70
40023;DHT22;25713;-35.352;149.036;2023-03-14T16:32:12;20.40;90.50
40023;DHT22;25713;-35.352;149.036;2023-03-14T16:34:42;20.40;90.60
40023;DHT22;25713;-35.352;149.036;2023-03-14T16:37:16;20.40;90.50
40023;DHT22;25713;-35.352;149.036;2023-03-14T16:39:47;20.40;90.60
40023;DHT22;25713;-35.352;149.036;2023-03-14T16:42:17;20.30;90.60
40023;DHT22;25713;-35.352;149.036;2023-03-14T16:44:47;20.30;90.50
40023;DHT22;25713;-35.352;149.036;2023-03-14T16:47:17;20.30;90.50
40023;DHT22;25713;-35.352;149.036;2023-03-14T16:49:47;20.30;90.30
40023;DHT22;25713;-35.352;149.036;2023-03-14T16:52:21;20.30;90.40